createdAt,value
2018-12-27T00:01:25.469Z,102328.27
2018-12-27T00:03:53.852Z,102327.61
2018-12-27T00:06:22.229Z,102328.58
2018-12-27T00:08:50.624Z,102329.30
2018-12-27T00:11:18.988Z,102322.25
2018-12-27T00:13:47.371Z,102319.33
2018-12-27T00:16:15.745Z,102324.48
2018-12-27T00:18:44.137Z,102324.45
2018-12-27T00:21:12.518Z,102319.88
2018-12-27T00:23:40.906Z,102318.25
2018-12-27T00:26:09.282Z,102323.92
2018-12-27T00:28:37.669Z,102313.44
2018-12-27T00:31:25.428Z,102309.81
2018-12-27T00:33:53.935Z,102305.94
2018-12-27T00:36:22.449Z,102302.13
2018-12-27T00:38:51.602Z,102304.19
2018-12-27T00:41:21.195Z,102303.52
2018-12-27T00:43:49.714Z,102300.60
2018-12-27T00:46:37.475Z,102298.78
2018-12-27T00:49:05.991Z,102296.41
2018-12-27T00:51:34.490Z,102292.27
2018-12-27T00:54:02.998Z,102302.30
2018-12-27T00:56:31.551Z,102297.15
2018-12-27T00:59:00.077Z,102309.06
2018-12-27T01:01:28.589Z,102307.39
2018-12-27T01:03:57.088Z,102300.23
2018-12-27T01:06:25.613Z,102302.13
2018-12-27T01:08:54.117Z,102295.94
2018-12-27T01:11:42.010Z,102296.09
2018-12-27T01:14:10.513Z,102297.75
2018-12-27T01:16:39.028Z,102302.13
2018-12-27T01:19:07.523Z,102301.70
2018-12-27T01:21:36.026Z,102296.51
2018-12-27T01:24:04.541Z,102302.88
2018-12-27T01:26:33.045Z,102302.06
2018-12-27T01:29:20.811Z,102294.19
2018-12-27T01:31:50.670Z,102295.40
2018-12-27T01:34:19.807Z,102295.29
2018-12-27T01:36:48.319Z,102295.20
2018-12-27T01:39:16.820Z,102298.64
2018-12-27T01:41:45.321Z,102298.14
2018-12-27T01:44:33.100Z,102299.71
2018-12-27T01:47:01.602Z,102297.08
2018-12-27T01:49:30.128Z,102290.50
2018-12-27T01:51:58.626Z,102286.69
2018-12-27T01:54:27.124Z,102281.96
2018-12-27T01:56:55.635Z,102275.84
2018-12-27T01:59:24.147Z,102275.56
2018-12-27T02:01:52.663Z,102279.90
2018-12-27T02:04:21.165Z,102283.09
2018-12-27T02:06:49.672Z,102274.06
2018-12-27T02:09:18.183Z,102270.65
2018-12-27T02:12:06.024Z,102262.72
2018-12-27T02:14:34.522Z,102260.69
2018-12-27T02:17:03.115Z,102258.42
2018-12-27T02:19:31.634Z,102251.91
2018-12-27T02:22:00.166Z,102249.27
2018-12-27T02:24:47.924Z,102254.53
2018-12-27T02:27:16.439Z,102245.61
2018-12-27T02:29:44.943Z,102254.15
2018-12-27T02:32:13.982Z,102241.48
2018-12-27T02:35:02.133Z,102240.75
2018-12-27T02:37:30.989Z,102242.48
2018-12-27T02:39:59.989Z,102239.78
2018-12-27T02:42:28.700Z,102239.92
2018-12-27T02:44:57.534Z,102253.37
2018-12-27T02:47:26.105Z,102236.90
2018-12-27T02:49:55.022Z,102240.64
2018-12-27T02:52:24.060Z,102240.95
2018-12-27T02:55:13.808Z,102237.79
2018-12-27T02:57:42.409Z,102231.47
2018-12-27T03:17:25.230Z,102208.11
2018-12-27T03:19:53.798Z,102201.91
2018-12-27T03:22:22.315Z,102200.52
2018-12-27T03:24:50.831Z,102196.35
2018-12-27T03:27:19.346Z,102194.77
2018-12-27T03:29:47.852Z,102199.52
2018-12-27T03:32:16.603Z,102192.88
2018-12-27T03:34:45.100Z,102196.73
2018-12-27T03:37:13.614Z,102186.27
2018-12-27T03:39:42.126Z,102192.16
2018-12-27T03:42:10.649Z,102200.39
2018-12-27T03:44:39.146Z,102191.42
2018-12-27T03:47:07.653Z,102186.28
2018-12-27T03:49:36.158Z,102189.77
2018-12-27T03:52:04.674Z,102185.92
2018-12-27T03:54:33.255Z,102195.95
2018-12-27T03:57:01.746Z,102185.71
2018-12-27T03:59:30.260Z,102182.36
2018-12-27T04:01:58.763Z,102184.16
2018-12-27T04:04:27.279Z,102179.53
2018-12-27T04:06:55.782Z,102177.34
2018-12-27T04:09:24.300Z,102177.52
2018-12-27T04:11:52.799Z,102171.53
2018-12-27T04:14:21.304Z,102173.63
2018-12-27T04:16:49.687Z,102174.67
2018-12-27T04:19:18.067Z,102172.66
2018-12-27T04:21:46.448Z,102175.13
2018-12-27T04:24:35.612Z,102172.73
2018-12-27T04:27:03.995Z,102171.88
2018-12-27T04:29:32.376Z,102174.94
2018-12-27T04:32:00.920Z,102169.15
2018-12-27T04:35:09.220Z,102174.69
2018-12-27T04:37:37.599Z,102172.42
2018-12-27T04:40:45.903Z,102174.20
2018-12-27T04:43:34.280Z,102179.09
2018-12-27T04:46:02.674Z,102170.00
2018-12-27T04:48:31.053Z,102165.70
2018-12-27T04:50:59.434Z,102163.61
2018-12-27T04:53:27.811Z,102170.61
2018-12-27T04:55:56.193Z,102170.39
2018-12-27T04:58:24.569Z,102170.33
2018-12-27T05:00:53.184Z,102161.75
2018-12-27T05:03:21.582Z,102161.08
2018-12-27T05:05:49.949Z,102162.64
2018-12-27T05:08:18.346Z,102160.22
2018-12-27T05:10:46.718Z,102152.52
2018-12-27T05:13:15.106Z,102153.83
2018-12-27T05:15:43.493Z,102150.84
2018-12-27T05:18:11.885Z,102151.63
2018-12-27T05:20:59.607Z,102150.45
2018-12-27T05:23:27.991Z,102149.36
2018-12-27T05:25:56.365Z,102150.84
2018-12-27T05:28:24.749Z,102146.48
2018-12-27T05:30:53.125Z,102142.39
2018-12-27T05:33:21.503Z,102140.33
2018-12-27T05:36:09.217Z,102141.87
2018-12-27T05:38:37.632Z,102143.80
2018-12-27T05:41:06.004Z,102142.45
2018-12-27T05:43:34.388Z,102143.28
2018-12-27T05:46:22.189Z,102141.67
2018-12-27T05:48:50.567Z,102150.78
2018-12-27T05:51:18.954Z,102144.52
2018-12-27T05:53:47.323Z,102141.33
2018-12-27T05:56:16.150Z,102143.38
2018-12-27T05:58:44.552Z,102145.63
2018-12-27T06:01:13.118Z,102137.31
2018-12-27T06:03:41.820Z,102145.91
2018-12-27T06:06:10.229Z,102140.11
2018-12-27T06:08:38.626Z,102142.00
2018-12-27T06:11:07.084Z,102146.39
2018-12-27T06:13:54.789Z,102144.48
2018-12-27T06:16:23.199Z,102151.63
2018-12-27T06:18:51.603Z,102131.87
2018-12-27T06:21:20.389Z,102138.87
2018-12-27T06:23:48.784Z,102144.77
2018-12-27T06:26:36.533Z,102145.69
2018-12-27T06:29:05.017Z,102152.94
2018-12-27T06:31:35.233Z,102153.69
2018-12-27T06:34:03.839Z,102158.87
2018-12-27T06:36:32.224Z,102159.66
2018-12-27T06:39:19.939Z,102158.06
2018-12-27T06:41:48.317Z,102159.59
2018-12-27T06:44:16.702Z,102154.84
2018-12-27T06:47:04.455Z,102152.91
2018-12-27T06:49:32.885Z,102148.95
2018-12-27T06:52:01.267Z,102157.33
2018-12-27T06:54:49.352Z,102158.23
2018-12-27T06:57:17.830Z,102142.89
2018-12-27T07:00:05.911Z,102146.73
2018-12-27T07:02:34.288Z,102144.95
2018-12-27T07:05:22.021Z,102148.23
2018-12-27T07:07:50.412Z,102151.61
2018-12-27T07:10:18.815Z,102151.80
2018-12-27T07:12:47.234Z,102155.40
2018-12-27T07:15:15.660Z,102154.38
2018-12-27T07:17:44.029Z,102152.87
2018-12-27T07:20:12.422Z,102153.80
2018-12-27T07:22:40.796Z,102155.63
2018-12-27T07:25:09.181Z,102158.47
2018-12-27T07:27:37.885Z,102162.48
2018-12-27T07:30:46.541Z,102164.86
2018-12-27T07:33:14.939Z,102163.72
2018-12-27T07:35:43.343Z,102167.13
2018-12-27T07:38:11.731Z,102164.50
2018-12-27T07:40:40.108Z,102166.45
2018-12-27T07:43:08.921Z,102162.70
2018-12-27T07:45:37.302Z,102162.64
2018-12-27T07:48:05.663Z,102160.98
2018-12-27T07:50:34.055Z,102163.33
2018-12-27T07:53:46.481Z,102160.91
2018-12-27T07:56:14.850Z,102157.09
2018-12-27T07:59:02.371Z,102162.94
2018-12-27T08:01:30.745Z,102161.42
2018-12-27T08:04:18.595Z,102168.83
2018-12-27T08:06:46.982Z,102163.07
2018-12-27T08:09:15.411Z,102164.92
2018-12-27T08:11:43.768Z,102169.29
2018-12-27T08:14:12.158Z,102163.61
2018-12-27T08:16:40.523Z,102172.42
2018-12-27T08:19:09.163Z,102174.83
2018-12-27T08:21:37.546Z,102168.36
2018-12-27T08:24:05.918Z,102162.15
2018-12-27T08:26:34.316Z,102168.25
2018-12-27T08:29:02.694Z,102168.86
2018-12-27T08:31:31.080Z,102166.90
2018-12-27T08:33:59.449Z,102173.38
2018-12-27T08:36:28.065Z,102169.42
2018-12-27T08:38:56.437Z,102163.64
2018-12-27T08:41:24.823Z,102161.47
2018-12-27T08:43:53.197Z,102158.48
2018-12-27T08:46:21.576Z,102155.47
2018-12-27T08:48:49.947Z,102159.05
2018-12-27T08:51:18.332Z,102152.80
2018-12-27T08:53:46.707Z,102151.59
2018-12-27T08:56:15.093Z,102154.97
2018-12-27T08:58:43.465Z,102155.71
2018-12-27T09:01:11.844Z,102157.80
2018-12-27T09:03:40.222Z,102155.69
2018-12-27T09:06:08.866Z,102160.14
2018-12-27T09:08:37.228Z,102154.69
2018-12-27T09:11:05.616Z,102149.47
2018-12-27T09:13:46.363Z,102151.76
2018-12-27T09:16:04.193Z,102142.30
2018-12-27T09:18:32.571Z,102134.39
2018-12-27T09:21:20.304Z,102136.84
2018-12-27T09:23:48.686Z,102119.47
2018-12-27T09:26:17.080Z,102134.89
2018-12-27T09:28:45.464Z,102129.81
2018-12-27T09:31:13.844Z,102133.33
2018-12-27T09:34:04.897Z,102116.97
2018-12-27T09:36:12.364Z,102100.89
2018-12-27T09:38:40.754Z,102108.13
2018-12-27T09:41:09.137Z,102104.13
2018-12-27T09:43:37.527Z,102115.70
2018-12-27T09:46:06.146Z,102118.16
2018-12-27T09:48:34.538Z,102115.42
2018-12-27T09:51:22.261Z,102107.70
2018-12-27T09:53:50.636Z,102104.17
2018-12-27T09:56:25.924Z,102100.50
2018-12-27T09:58:54.314Z,102100.56
2018-12-27T10:01:22.748Z,102100.66
2018-12-27T10:03:51.075Z,102105.24
2018-12-27T10:06:19.446Z,102094.23
2018-12-27T10:08:47.913Z,102100.33
2018-12-27T10:11:16.284Z,102094.52
2018-12-27T10:13:44.956Z,102092.67
2018-12-27T10:16:13.359Z,102084.33
2018-12-27T10:18:41.730Z,102088.38
2018-12-27T10:21:10.110Z,102090.56
2018-12-27T10:23:38.488Z,102086.41
2018-12-27T10:26:06.873Z,102089.69
2018-12-27T10:28:35.253Z,102085.08
2018-12-27T10:31:03.633Z,102076.28
2018-12-27T10:33:32.019Z,102081.41
2018-12-27T10:36:00.402Z,102078.27
2018-12-27T10:38:28.785Z,102071.41
2018-12-27T10:40:57.166Z,102068.73
2018-12-27T10:43:44.901Z,102073.22
2018-12-27T10:46:13.291Z,102070.35
2018-12-27T10:48:41.680Z,102064.69
2018-12-27T10:51:10.087Z,102057.93
2018-12-27T10:53:38.460Z,102056.16
2018-12-27T10:56:06.918Z,102052.59
2018-12-27T10:58:35.294Z,102056.16
2018-12-27T11:01:03.684Z,102047.30
2018-12-27T11:03:32.080Z,102050.28
2018-12-27T11:06:00.700Z,102047.04
2018-12-27T11:08:29.088Z,102041.28
2018-12-27T11:10:57.469Z,102022.59
2018-12-27T11:13:25.853Z,102020.88
2018-12-27T11:15:54.231Z,102014.57
2018-12-27T11:18:22.621Z,102010.60
2018-12-27T11:20:50.993Z,102007.31
2018-12-27T11:23:19.378Z,102010.91
2018-12-27T11:25:48.579Z,101992.16
2018-12-27T11:28:17.849Z,101991.75
2018-12-27T11:30:46.239Z,101976.86
2018-12-27T11:33:34.002Z,101984.29
2018-12-27T11:36:02.377Z,101985.09
2018-12-27T11:38:30.768Z,101979.14
2018-12-27T11:40:59.141Z,101965.91
2018-12-27T11:43:27.546Z,101964.41
2018-12-27T11:45:55.919Z,101968.48
2018-12-27T11:48:24.312Z,101965.77
2018-12-27T11:51:12.022Z,101961.79
2018-12-27T11:53:40.427Z,101961.52
2018-12-27T11:56:08.794Z,101959.94
2018-12-27T11:58:56.519Z,101971.80
2018-12-27T12:01:44.226Z,101967.93
2018-12-27T12:04:32.054Z,101969.70
2018-12-27T12:07:00.435Z,101955.17
2018-12-27T12:09:48.395Z,101963.66
2018-12-27T12:12:16.779Z,101965.73
2018-12-27T12:14:45.191Z,101964.70
2018-12-27T12:17:32.904Z,101957.48
2018-12-27T12:20:01.293Z,101952.41
2018-12-27T12:22:29.671Z,101940.14
2018-12-27T12:24:58.077Z,101941.83
2018-12-27T12:27:26.479Z,101941.54
2018-12-27T12:29:54.866Z,101932.20
2018-12-27T12:32:23.247Z,101927.77
2018-12-27T12:34:51.626Z,101922.58
2018-12-27T12:37:20.452Z,101914.70
2018-12-27T12:39:48.902Z,101915.45
2018-12-27T12:42:17.493Z,101910.84
2018-12-27T12:44:45.839Z,101915.57
2018-12-27T12:47:14.228Z,101912.30
2018-12-27T12:49:42.595Z,101917.90
2018-12-27T12:52:10.981Z,101921.13
2018-12-27T12:54:39.378Z,101921.12
2018-12-27T12:57:07.757Z,101910.52
2018-12-27T12:59:36.145Z,101906.30
2018-12-27T13:02:04.636Z,101904.09
2018-12-27T13:04:33.024Z,101906.98
2018-12-27T13:07:01.459Z,101906.77
2018-12-27T13:09:29.861Z,101904.34
2018-12-27T13:12:17.597Z,101909.80
2018-12-27T13:14:45.993Z,101912.20
2018-12-27T13:17:33.789Z,101922.16
2018-12-27T13:20:02.238Z,101920.16
2018-12-27T13:22:30.700Z,101920.34
2018-12-27T13:25:18.471Z,101922.80
2018-12-27T13:27:46.856Z,101919.77
2018-12-27T13:30:15.475Z,101923.06
2018-12-27T13:32:43.856Z,101925.46
2018-12-27T13:35:31.563Z,101922.84
2018-12-27T13:37:59.945Z,101918.14
2018-12-27T13:40:28.314Z,101919.03
2018-12-27T13:42:56.713Z,101916.13
2018-12-27T13:45:44.433Z,101915.77
2018-12-27T13:48:12.831Z,101921.72
2018-12-27T13:50:41.195Z,101919.55
2018-12-27T13:53:09.614Z,101917.69
2018-12-27T13:55:38.294Z,101918.55
2018-12-27T13:58:06.663Z,101914.11
2018-12-27T14:00:54.546Z,101914.11
2018-12-27T14:03:22.935Z,101916.97
2018-12-27T14:05:51.306Z,101911.42
2018-12-27T14:08:19.678Z,101911.14
2018-12-27T14:10:48.062Z,101920.10
2018-12-27T14:13:16.438Z,101917.60
2018-12-27T14:15:44.823Z,101921.88
2018-12-27T14:18:13.815Z,101925.86
2018-12-27T14:20:42.210Z,101930.61
2018-12-27T14:23:10.590Z,101937.41
2018-12-27T14:25:38.971Z,101941.03
2018-12-27T14:28:07.346Z,101942.35
2018-12-27T14:30:35.739Z,101943.36
2018-12-27T14:33:05.045Z,101941.27
2018-12-27T14:35:33.440Z,101940.42
2018-12-27T14:38:02.047Z,101937.61
2018-12-27T14:40:30.428Z,101940.59
2018-12-27T14:42:58.823Z,101932.86
2018-12-27T14:45:28.151Z,101934.65
2018-12-27T14:47:56.525Z,101936.45
2018-12-27T14:50:24.922Z,101934.55
2018-12-27T14:52:53.351Z,101925.78
2018-12-27T14:55:21.731Z,101933.74
2018-12-27T14:57:50.134Z,101927.43
2018-12-27T15:00:18.612Z,101926.91
2018-12-27T15:02:47.952Z,101925.87
2018-12-27T15:05:18.278Z,101927.16
2018-12-27T15:07:46.855Z,101931.53
2018-12-27T15:10:15.229Z,101920.91
2018-12-27T15:12:43.629Z,101929.84
2018-12-27T15:15:12.004Z,101931.17
2018-12-27T15:17:40.400Z,101933.82
2018-12-27T15:20:08.887Z,101931.17
2018-12-27T15:22:39.254Z,101923.77
2018-12-27T15:25:07.634Z,101926.53
2018-12-27T15:27:36.953Z,101924.69
2018-12-27T15:30:06.462Z,101917.77
2018-12-27T15:32:35.870Z,101916.59
2018-12-27T15:35:04.583Z,101898.63
2018-12-27T15:37:33.210Z,101899.37
2018-12-27T15:40:01.582Z,101902.80
2018-12-27T15:42:29.946Z,101899.14
2018-12-27T15:44:58.328Z,101904.23
2018-12-27T15:47:26.698Z,101901.61
2018-12-27T15:49:55.092Z,101903.75
2018-12-27T15:52:23.462Z,101903.02
2018-12-27T15:54:51.956Z,101901.66
2018-12-27T15:57:20.321Z,101909.19
2018-12-27T15:59:48.704Z,101917.03
2018-12-27T16:02:17.164Z,101917.16
2018-12-27T16:04:45.543Z,101914.34
2018-12-27T16:07:17.026Z,101922.59
2018-12-27T16:09:48.401Z,101925.30
2018-12-27T16:12:17.246Z,101929.88
2018-12-27T16:14:45.880Z,101931.03
2018-12-27T16:17:14.283Z,101926.23
2018-12-27T16:19:42.698Z,101924.48
2018-12-27T16:22:11.068Z,101917.70
2018-12-27T16:24:39.526Z,101925.49
2018-12-27T16:27:15.858Z,101923.93
2018-12-27T16:29:44.247Z,101924.02
2018-12-27T16:32:12.635Z,101916.48
2018-12-27T16:34:41.041Z,101919.38
2018-12-27T16:37:09.466Z,101923.02
2018-12-27T16:39:38.492Z,101918.17
2018-12-27T16:42:12.883Z,101919.42
2018-12-27T16:44:42.177Z,101922.59
2018-12-27T16:47:10.583Z,101920.73
2018-12-27T16:49:38.989Z,101920.98
2018-12-27T16:52:13.156Z,101916.85
2018-12-27T16:54:41.568Z,101918.61
2018-12-27T16:57:09.973Z,101924.30
2018-12-27T16:59:38.350Z,101931.73
2018-12-27T17:02:07.699Z,101931.42
2018-12-27T17:04:36.097Z,101926.67
2018-12-27T17:07:16.003Z,101936.22
2018-12-27T17:09:40.403Z,101925.94
2018-12-27T17:12:08.825Z,101921.87
2018-12-27T17:14:37.233Z,101921.20
2018-12-27T17:17:06.575Z,101937.91
2018-12-27T17:19:34.959Z,101936.27
2018-12-27T17:22:04.376Z,101939.66
2018-12-27T17:24:32.764Z,101933.78
2018-12-27T17:27:03.070Z,101932.36
2018-12-27T17:29:37.471Z,101930.50
2018-12-27T17:32:05.844Z,101930.23
2018-12-27T17:34:34.258Z,101932.92
2018-12-27T17:37:04.830Z,101941.63
2018-12-27T17:39:33.256Z,101943.51
2018-12-27T17:42:01.878Z,101941.52
2018-12-27T17:44:32.385Z,101947.67
2018-12-27T17:47:00.773Z,101942.19
2018-12-27T17:49:29.159Z,101945.22
2018-12-27T17:51:57.532Z,101950.30
2018-12-27T17:54:25.906Z,101953.39
2018-12-27T17:56:54.409Z,101964.31
2018-12-27T17:59:22.786Z,101952.79
2018-12-27T18:01:51.219Z,101954.91
2018-12-27T18:04:19.633Z,101955.14
2018-12-27T18:06:53.907Z,101953.32
2018-12-27T18:09:22.287Z,101953.06
2018-12-27T18:11:50.674Z,101944.67
2018-12-27T18:14:19.077Z,101948.53
2018-12-27T18:16:47.474Z,101937.55
2018-12-27T18:19:15.862Z,101934.93
2018-12-27T18:21:45.211Z,101939.72
2018-12-27T18:24:18.255Z,101947.97
2018-12-27T18:26:48.723Z,101946.69
2018-12-27T18:29:17.093Z,101948.58
2018-12-27T18:31:45.476Z,101952.19
2018-12-27T18:34:14.769Z,101947.48
2018-12-27T18:36:45.114Z,101957.17
2018-12-27T18:39:13.588Z,101960.28
2018-12-27T18:41:41.940Z,101964.95
2018-12-27T18:44:10.318Z,101976.34
2018-12-27T18:46:38.728Z,101966.80
2018-12-27T18:49:07.118Z,101967.52
2018-12-27T18:51:35.566Z,101969.27
2018-12-27T18:54:03.973Z,101963.48
2018-12-27T18:56:33.359Z,101974.20
2018-12-27T18:59:01.765Z,101968.14
2018-12-27T19:01:30.447Z,101960.01
2018-12-27T19:03:58.900Z,101962.98
2018-12-27T19:06:27.283Z,101978.55
2018-12-27T19:08:55.675Z,101987.14
2018-12-27T19:12:00.598Z,101981.33
2018-12-27T19:14:30.937Z,101979.95
2018-12-27T19:17:00.387Z,101995.70
2018-12-27T19:19:28.773Z,101993.79
2018-12-27T19:21:57.247Z,101996.02
2018-12-27T19:24:25.615Z,101997.88
2018-12-27T19:26:53.999Z,101997.45
2018-12-27T19:29:28.241Z,101989.08
2018-12-27T19:31:56.623Z,101965.96
2018-12-27T19:34:30.762Z,101971.69
2018-12-27T19:37:04.854Z,101974.33
2018-12-27T19:39:33.249Z,101972.35
2018-12-27T19:42:01.714Z,101987.55
2018-12-27T19:44:30.127Z,101995.68
2018-12-27T19:46:58.495Z,101987.48
2018-12-27T19:49:26.968Z,101989.25
2018-12-27T19:51:55.580Z,101990.70
2018-12-27T19:54:24.043Z,101992.05
2018-12-27T19:56:54.381Z,101986.69
2018-12-27T19:59:26.342Z,101979.78
2018-12-27T20:01:54.715Z,101984.98
2018-12-27T20:04:23.107Z,101986.72
2018-12-27T20:06:51.732Z,101980.47
2018-12-27T20:09:20.136Z,101968.97
2018-12-27T20:11:48.510Z,101974.93
2018-12-27T20:14:16.902Z,101968.14
2018-12-27T20:16:46.194Z,101967.02
2018-12-27T20:19:14.583Z,101964.66
2018-12-27T20:21:42.966Z,101973.47
2018-12-27T20:24:11.368Z,101969.73
2018-12-27T20:26:39.740Z,101965.19
2018-12-27T20:29:13.856Z,101955.36
2018-12-27T20:31:43.605Z,101969.73
2018-12-27T20:34:13.011Z,101974.19
2018-12-27T20:36:42.362Z,101968.73
2018-12-27T20:39:10.736Z,101974.13
2018-12-27T20:41:39.194Z,101966.80
2018-12-27T20:44:07.587Z,101965.49
2018-12-27T20:46:35.969Z,101961.24
2018-12-27T20:49:04.358Z,101954.59
2018-12-27T20:54:36.160Z,101953.50
2018-12-27T20:57:08.492Z,101951.94
2018-12-27T20:59:36.876Z,101957.42
2018-12-27T21:02:05.328Z,101961.80
2018-12-27T21:04:33.719Z,101962.44
2018-12-27T21:07:03.032Z,101956.47
2018-12-27T21:09:31.495Z,101959.66
2018-12-27T21:12:03.044Z,101961.43
2018-12-27T21:14:31.397Z,101966.05
2018-12-27T21:16:59.790Z,101974.53
2018-12-27T21:19:28.173Z,101980.30
2018-12-27T21:21:56.555Z,101985.44
2018-12-27T21:24:24.989Z,101979.28
2018-12-27T21:26:53.361Z,101971.84
2018-12-27T21:29:21.750Z,101974.95
2018-12-27T21:31:50.171Z,101964.64
2018-12-27T21:34:18.565Z,101966.48
2018-12-27T21:36:50.599Z,101970.11
2018-12-27T21:39:19.002Z,101977.50
2018-12-27T21:41:47.541Z,101978.04
2018-12-27T21:44:15.937Z,101972.53
2018-12-27T21:46:44.318Z,101963.29
2018-12-27T21:49:32.079Z,101945.89
2018-12-27T21:52:00.743Z,101948.03
2018-12-27T21:54:29.125Z,101942.63
2018-12-27T21:56:57.491Z,101943.39
2018-12-27T21:59:45.219Z,101944.20
2018-12-27T22:02:13.604Z,101939.44
2018-12-27T22:04:41.981Z,101932.48
2018-12-27T22:07:10.357Z,101923.58
2018-12-27T22:09:39.054Z,101925.02
2018-12-27T22:12:07.438Z,101920.67
2018-12-27T22:14:35.818Z,101924.04
2018-12-27T22:17:04.198Z,101916.25
2018-12-27T22:19:32.612Z,101912.75
2018-12-27T22:22:00.990Z,101918.68
2018-12-27T22:24:29.361Z,101918.25
2018-12-27T22:26:57.755Z,101919.73
2018-12-27T22:29:45.470Z,101925.03
2018-12-27T22:32:13.850Z,101931.73
2018-12-27T22:34:42.233Z,101926.09
2018-12-27T22:37:10.632Z,101923.19
2018-12-27T22:39:39.007Z,101925.72
2018-12-27T22:42:07.397Z,101933.42
2018-12-27T22:44:35.772Z,101920.19
2018-12-27T22:47:04.148Z,101929.68
2018-12-27T22:49:32.565Z,101926.17
2018-12-27T22:52:00.948Z,101926.04
2018-12-27T22:54:29.325Z,101931.59
2018-12-27T22:56:57.718Z,101941.55
2018-12-27T22:59:45.427Z,101935.57
2018-12-27T23:02:13.888Z,101944.83
2018-12-27T23:05:01.594Z,101936.05
2018-12-27T23:07:29.986Z,101906.34
2018-12-27T23:09:58.382Z,101909.89
2018-12-27T23:12:26.884Z,101919.39
2018-12-27T23:14:55.970Z,101932.36
2018-12-27T23:17:24.353Z,101937.78
2018-12-27T23:20:12.246Z,101946.45
2018-12-27T23:22:40.748Z,101950.47
2018-12-27T23:25:09.112Z,101950.62
2018-12-27T23:27:37.560Z,101957.22
2018-12-27T23:30:46.083Z,101948.18
2018-12-27T23:33:14.447Z,101955.63
2018-12-27T23:35:42.819Z,101957.36
2018-12-27T23:38:11.201Z,101949.59
2018-12-27T23:40:39.586Z,101955.68
2018-12-27T23:43:07.970Z,101949.06
2018-12-27T23:45:36.353Z,101950.35
2018-12-27T23:48:04.740Z,101953.45
2018-12-27T23:50:33.116Z,101960.41
2018-12-27T23:53:01.499Z,101959.13
2018-12-27T23:55:29.879Z,101966.48
2018-12-27T23:57:58.263Z,101966.69
